Time;durP1;ratioP1;P1;durP2;ratioP2;P2;SDS_P1;SDS_P2;PMS_P1;PMS_P2;Temp;Humidity;BMP_temperature;BMP_pressure;BME280_temperature;BME280_humidity;BME280_pressure;Samples;Min_cycle;Max_cycle;Signal;HPM_P1;HPM_P2
2022/08/31 00:04:59;;;;;;;5.70;5.20;;;21.30;57.80;;;;;;6248103;23;20428;-51
2022/08/31 00:07:26;;;;;;;6.00;5.37;;;21.30;58.10;;;;;;6248360;23;20409;-48
2022/08/31 00:09:52;;;;;;;5.90;5.37;;;21.30;57.80;;;;;;6248391;23;20161;-46
2022/08/31 00:12:18;;;;;;;5.40;4.90;;;21.20;58.20;;;;;;6249046;23;20354;-47
2022/08/31 00:14:44;;;;;;;5.13;4.63;;;21.20;58.40;;;;;;6248927;23;20747;-47
2022/08/31 00:17:10;;;;;;;5.73;5.23;;;21.10;58.40;;;;;;6249443;23;20755;-45
2022/08/31 00:19:36;;;;;;;6.30;5.70;;;21.10;58.80;;;;;;6249534;23;20153;-48
2022/08/31 00:22:02;;;;;;;6.03;5.47;;;21.10;59.00;;;;;;6249387;23;20139;-46
2022/08/31 00:24:27;;;;;;;6.40;5.80;;;21.10;59.00;;;;;;6248619;23;20399;-44
2022/08/31 00:26:53;;;;;;;7.33;5.77;;;21.00;59.60;;;;;;6248848;23;20835;-47
2022/08/31 00:29:18;;;;;;;7.53;6.73;;;21.00;61.00;;;;;;6249101;23;20439;-50
2022/08/31 00:31:44;;;;;;;7.40;6.70;;;20.90;65.70;;;;;;6249185;23;20545;-48
2022/08/31 00:34:10;;;;;;;7.27;6.40;;;20.80;67.80;;;;;;6248249;23;20220;-45
2022/08/31 00:36:35;;;;;;;10.80;6.50;;;20.70;69.90;;;;;;6249621;23;20147;-44
2022/08/31 00:39:02;;;;;;;11.93;7.80;;;20.60;77.80;;;;;;6248936;23;20483;-45
2022/08/31 00:41:30;;;;;;;8.23;7.40;;;20.30;86.20;;;;;;6249286;23;20582;-48
2022/08/31 00:43:58;;;;;;;8.33;7.53;;;20.20;91.50;;;;;;6247461;22;20395;-43
2022/08/31 00:46:27;;;;;;;9.07;8.17;;;19.90;93.00;;;;;;6249279;22;20763;-44
2022/08/31 00:49:01;;;;;;;9.40;8.33;;;19.60;94.40;;;;;;6248458;23;20358;-46
2022/08/31 00:51:28;;;;;;;10.23;8.50;;;19.40;95.60;;;;;;6249255;23;20346;-44
2022/08/31 00:53:55;;;;;;;10.53;8.40;;;19.20;96.60;;;;;;6247727;23;20352;-44
2022/08/31 00:56:21;;;;;;;17.50;9.20;;;18.90;97.60;;;;;;6249056;23;20415;-44
2022/08/31 00:58:47;;;;;;;10.63;9.00;;;18.80;98.70;;;;;;6246730;23;20638;-47
2022/08/31 01:01:13;;;;;;;10.83;9.53;;;18.70;99.40;;;;;;6249175;23;20429;-45
2022/08/31 01:03:40;;;;;;;10.70;9.70;;;18.50;99.90;;;;;;6247645;23;20362;-49
2022/08/31 01:06:07;;;;;;;10.77;9.23;;;18.40;99.90;;;;;;6249015;23;20437;-44
2022/08/31 01:08:32;;;;;;;9.67;8.67;;;18.30;99.90;;;;;;6248147;23;20365;-45
2022/08/31 01:10:58;;;;;;;10.30;9.17;;;18.20;99.90;;;;;;6245819;23;20399;-45
2022/08/31 01:13:24;;;;;;;11.90;9.97;;;18.20;99.90;;;;;;6247144;23;20138;-47
2022/08/31 01:15:54;;;;;;;10.57;9.50;;;18.10;99.90;;;;;;6247791;23;20352;-45
2022/08/31 01:18:21;;;;;;;11.83;10.30;;;18.00;99.90;;;;;;6245963;23;20137;-46
2022/08/31 01:21:18;;;;;;;9.93;9.03;;;18.00;99.90;;;;;;6245749;23;20376;-45
2022/08/31 01:23:44;;;;;;;9.30;8.43;;;18.00;99.90;;;;;;6245931;23;20380;-44
2022/08/31 01:26:19;;;;;;;11.97;9.90;;;17.90;99.90;;;;;;6246936;22;20779;-48
2022/08/31 01:28:44;;;;;;;10.63;9.60;;;17.90;99.90;;;;;;6246340;23;20361;-46
2022/08/31 01:31:18;;;;;;;9.73;8.43;;;18.00;99.90;;;;;;6247041;23;20660;-46
2022/08/31 01:33:44;;;;;;;11.07;10.03;;;17.90;99.90;;;;;;6248930;23;20189;-44
2022/08/31 01:36:10;;;;;;;9.73;8.80;;;17.90;99.90;;;;;;6247302;23;20550;-45
2022/08/31 01:38:36;;;;;;;9.93;8.93;;;17.90;99.90;;;;;;6247946;23;20221;-46
2022/08/31 01:41:03;;;;;;;9.10;8.20;;;17.90;99.90;;;;;;6248086;23;20361;-45
2022/08/31 01:43:32;;;;;;;9.57;8.67;;;18.00;99.90;;;;;;6249096;22;20144;-45
2022/08/31 01:45:59;;;;;;;9.87;8.87;;;17.90;99.90;;;;;;6248613;23;20405;-48
2022/08/31 01:48:25;;;;;;;9.70;8.80;;;18.00;99.90;;;;;;6249051;23;20362;-46
2022/08/31 01:50:51;;;;;;;10.00;9.00;;;18.00;99.90;;;;;;6248965;23;20357;-49
2022/08/31 01:53:16;;;;;;;9.03;8.03;;;18.00;99.90;;;;;;6248692;23;20349;-44
2022/08/31 01:55:42;;;;;;;11.03;10.03;;;18.10;99.90;;;;;;6248719;23;20131;-49
2022/08/31 01:58:08;;;;;;;12.47;10.00;;;18.00;99.90;;;;;;6248450;23;20498;-46
2022/08/31 02:00:34;;;;;;;10.10;9.10;;;18.00;99.90;;;;;;6247031;23;20266;-45
2022/08/31 02:03:01;;;;;;;9.07;8.00;;;18.10;99.90;;;;;;6248798;23;20237;-47
2022/08/31 02:05:27;;;;;;;8.70;7.90;;;18.10;99.90;;;;;;6247683;23;20691;-47
2022/08/31 02:07:54;;;;;;;9.33;8.43;;;18.20;99.90;;;;;;6247230;23;20486;-46
2022/08/31 02:10:20;;;;;;;10.03;9.10;;;18.30;99.90;;;;;;6247908;23;20359;-45
2022/08/31 02:12:46;;;;;;;9.07;8.03;;;18.40;99.90;;;;;;6248903;23;20386;-47
2022/08/31 02:15:11;;;;;;;10.07;8.73;;;18.40;99.90;;;;;;6249134;23;20134;-45
2022/08/31 02:17:37;;;;;;;9.37;8.37;;;18.50;99.90;;;;;;6248290;23;20154;-47
2022/08/31 02:20:05;;;;;;;9.57;8.67;;;18.50;99.90;;;;;;6248418;23;20449;-49
2022/08/31 02:22:30;;;;;;;8.83;7.93;;;18.50;99.90;;;;;;6248867;23;20493;-46
2022/08/31 02:24:56;;;;;;;8.93;7.93;;;18.60;99.90;;;;;;6248127;23;20364;-46
2022/08/31 02:27:23;;;;;;;8.70;7.80;;;18.60;99.90;;;;;;6250177;23;20284;-46
2022/08/31 02:29:49;;;;;;;10.07;9.17;;;18.70;99.90;;;;;;6250061;23;20573;-44
2022/08/31 02:32:14;;;;;;;11.70;9.07;;;18.70;99.90;;;;;;6250734;23;20393;-43
2022/08/31 02:34:40;;;;;;;10.13;9.13;;;18.70;99.90;;;;;;6249924;23;20199;-45
2022/08/31 02:37:06;;;;;;;9.00;8.10;;;18.70;99.90;;;;;;6250914;23;20207;-46
2022/08/31 02:39:31;;;;;;;9.33;8.30;;;18.60;99.90;;;;;;6249663;23;20161;-49
2022/08/31 02:41:58;;;;;;;9.23;8.27;;;18.60;99.90;;;;;;6250634;23;20356;-47
2022/08/31 02:44:24;;;;;;;10.50;9.40;;;18.60;99.90;;;;;;6250495;23;20160;-44
2022/08/31 02:46:50;;;;;;;10.97;9.87;;;18.60;99.90;;;;;;6250123;23;20405;-44
2022/08/31 02:49:15;;;;;;;9.23;8.30;;;18.50;99.90;;;;;;6250129;23;20398;-46
2022/08/31 02:51:42;;;;;;;9.20;8.30;;;18.50;99.90;;;;;;6249274;23;20365;-47
2022/08/31 02:54:08;;;;;;;11.40;10.37;;;18.50;99.90;;;;;;6250537;23;20200;-46
2022/08/31 02:56:34;;;;;;;8.90;8.00;;;18.50;99.90;;;;;;6250788;23;20362;-48
2022/08/31 02:59:00;;;;;;;8.60;7.90;;;18.50;99.90;;;;;;6249450;23;20792;-44
2022/08/31 03:01:25;;;;;;;9.97;8.97;;;18.60;99.90;;;;;;6247483;23;20167;-45
2022/08/31 03:03:51;;;;;;;14.30;9.30;;;18.60;99.90;;;;;;6247967;23;20523;-44
2022/08/31 03:06:18;;;;;;;11.03;9.33;;;18.60;99.90;;;;;;6248226;23;20164;-49
2022/08/31 03:08:44;;;;;;;10.93;9.80;;;18.50;99.90;;;;;;6247908;23;20358;-45
2022/08/31 03:11:10;;;;;;;13.20;10.70;;;18.40;99.90;;;;;;6247176;23;20663;-46
2022/08/31 03:13:37;;;;;;;11.10;10.00;;;18.30;99.90;;;;;;6246586;23;20358;-47
2022/08/31 03:16:04;;;;;;;12.60;11.40;;;18.20;99.90;;;;;;6246036;23;20435;-44
2022/08/31 03:18:30;;;;;;;12.00;10.90;;;18.10;99.90;;;;;;6246649;23;20364;-49
2022/08/31 03:20:55;;;;;;;12.13;10.97;;;17.90;99.90;;;;;;6245641;23;20832;-44
2022/08/31 03:23:21;;;;;;;12.37;11.30;;;17.80;99.90;;;;;;6247260;23;20137;-44
2022/08/31 03:25:47;;;;;;;12.00;10.90;;;17.70;99.90;;;;;;6247910;23;20144;-45
2022/08/31 03:28:12;;;;;;;12.23;11.13;;;17.60;99.90;;;;;;6249231;23;20150;-46
2022/08/31 03:30:38;;;;;;;13.60;12.20;;;17.50;99.90;;;;;;6249779;23;20359;-47
2022/08/31 03:33:04;;;;;;;13.20;11.90;;;17.50;99.90;;;;;;6250616;23;20164;-45
2022/08/31 03:35:30;;;;;;;15.30;13.80;;;17.20;99.90;;;;;;6249108;23;20836;-44
2022/08/31 03:37:56;;;;;;;15.00;13.60;;;17.10;99.90;;;;;;6250245;23;20165;-45
2022/08/31 03:40:21;;;;;;;15.00;13.50;;;17.00;99.90;;;;;;6249797;23;20144;-44
2022/08/31 03:42:47;;;;;;;15.60;14.10;;;16.90;99.90;;;;;;6250115;23;20390;-45
2022/08/31 03:45:13;;;;;;;17.97;14.57;;;16.90;99.90;;;;;;6249153;23;20134;-46
2022/08/31 03:47:40;;;;;;;16.70;14.03;;;16.70;99.90;;;;;;6250309;23;20194;-47
2022/08/31 03:50:07;;;;;;;16.03;14.53;;;16.60;99.90;;;;;;6247438;23;20151;-43
2022/08/31 03:52:33;;;;;;;15.17;13.63;;;16.50;99.90;;;;;;6248735;23;20444;-45
2022/08/31 03:54:58;;;;;;;15.83;14.30;;;16.50;99.90;;;;;;6245751;23;20359;-45
2022/08/31 03:57:24;;;;;;;15.00;13.60;;;16.60;99.90;;;;;;6246319;23;20832;-46
2022/08/31 03:59:56;;;;;;;16.03;14.03;;;16.60;99.90;;;;;;6247112;23;20158;-44
2022/08/31 04:02:23;;;;;;;14.80;13.37;;;16.70;99.90;;;;;;6247380;23;20155;-46
2022/08/31 04:04:50;;;;;;;15.37;13.80;;;16.70;99.90;;;;;;6247674;23;20415;-46
2022/08/31 04:07:17;;;;;;;15.83;13.80;;;16.60;99.90;;;;;;6246715;23;20928;-45
2022/08/31 04:09:43;;;;;;;14.50;13.30;;;16.60;99.90;;;;;;6247325;23;20427;-46
2022/08/31 04:12:08;;;;;;;14.27;12.80;;;16.60;99.90;;;;;;6248410;23;20798;-44
2022/08/31 04:14:34;;;;;;;15.10;12.67;;;16.60;99.90;;;;;;6249254;23;20358;-46
2022/08/31 04:17:00;;;;;;;13.97;12.77;;;16.60;99.90;;;;;;6248736;23;20164;-46
2022/08/31 04:19:25;;;;;;;13.60;12.30;;;16.60;99.90;;;;;;6248840;23;20198;-46
2022/08/31 04:21:51;;;;;;;13.40;12.10;;;16.70;99.90;;;;;;6249425;23;20212;-43
2022/08/31 04:24:17;;;;;;;13.73;12.37;;;16.60;99.90;;;;;;6248930;23;20193;-44
2022/08/31 04:26:42;;;;;;;12.70;11.50;;;16.60;99.90;;;;;;6248802;23;20183;-44
2022/08/31 04:29:08;;;;;;;13.40;12.20;;;16.60;99.90;;;;;;6249226;23;20135;-47
2022/08/31 04:31:36;;;;;;;12.60;11.30;;;16.60;99.90;;;;;;6249172;23;20179;-44
2022/08/31 04:34:02;;;;;;;12.50;10.97;;;16.60;99.90;;;;;;6248282;23;20399;-45
2022/08/31 04:36:28;;;;;;;13.80;10.40;;;16.60;99.90;;;;;;6221001;23;20436;-44
2022/08/31 04:38:56;;;;;;;12.10;11.00;;;16.70;99.90;;;;;;6245676;23;20517;-45
2022/08/31 04:41:25;;;;;;;10.80;9.80;;;16.60;99.90;;;;;;6246056;23;20794;-44
2022/08/31 04:43:52;;;;;;;12.20;10.80;;;16.60;99.90;;;;;;6243500;23;20413;-43
2022/08/31 04:46:19;;;;;;;11.77;10.77;;;16.60;99.90;;;;;;6243628;23;20441;-44
2022/08/31 04:48:45;;;;;;;12.53;11.33;;;16.60;99.90;;;;;;6244107;23;20382;-44
2022/08/31 04:51:14;;;;;;;11.70;10.50;;;16.60;99.90;;;;;;6243534;23;20374;-44
2022/08/31 04:53:40;;;;;;;10.30;9.40;;;16.60;99.90;;;;;;6245232;23;20513;-43
2022/08/31 04:56:15;;;;;;;11.67;10.57;;;16.60;99.90;;;;;;6244178;23;20362;-45
2022/08/31 04:58:43;;;;;;;12.20;11.10;;;16.70;99.90;;;;;;6243286;23;20432;-44
2022/08/31 05:01:10;;;;;;;10.40;9.40;;;16.70;99.90;;;;;;6240986;23;20487;-44
2022/08/31 05:03:36;;;;;;;10.37;9.20;;;16.70;99.90;;;;;;6244382;23;20414;-46
2022/08/31 05:06:02;;;;;;;10.40;9.40;;;16.60;99.90;;;;;;6245505;23;20433;-46
2022/08/31 05:08:29;;;;;;;11.00;9.90;;;16.60;99.90;;;;;;6245196;23;20395;-43
2022/08/31 05:10:54;;;;;;;11.33;10.20;;;16.60;99.90;;;;;;6244822;23;20417;-45
2022/08/31 05:13:20;;;;;;;11.17;10.17;;;16.60;99.90;;;;;;6245438;23;20456;-43
2022/08/31 05:15:45;;;;;;;11.40;10.30;;;16.60;99.90;;;;;;6246433;23;20537;-46
2022/08/31 05:18:11;;;;;;;11.77;10.57;;;16.70;99.90;;;;;;6247046;23;20141;-44
2022/08/31 05:20:38;;;;;;;11.17;10.10;;;16.70;99.90;;;;;;6247516;23;20280;-46
2022/08/31 05:23:04;;;;;;;11.80;10.67;;;16.80;99.90;;;;;;6246515;23;20507;-47
2022/08/31 05:25:30;;;;;;;10.80;9.80;;;16.80;99.90;;;;;;6246507;23;20402;-45
2022/08/31 05:27:55;;;;;;;9.93;9.03;;;16.90;99.90;;;;;;6244494;23;20406;-45
2022/08/31 05:30:21;;;;;;;9.40;8.60;;;16.90;99.90;;;;;;6243415;23;20178;-44
2022/08/31 05:32:47;;;;;;;10.27;9.23;;;16.90;99.90;;;;;;6244323;23;20510;-44
2022/08/31 05:35:14;;;;;;;10.80;9.80;;;16.90;99.90;;;;;;6244139;23;20668;-47
2022/08/31 05:37:41;;;;;;;10.30;9.37;;;16.90;99.90;;;;;;6243752;22;20644;-47
2022/08/31 05:40:07;;;;;;;9.10;8.23;;;16.90;99.90;;;;;;6243780;23;20364;-43
2022/08/31 05:42:33;;;;;;;9.53;8.70;;;16.90;99.90;;;;;;6243358;23;20432;-47
2022/08/31 05:44:59;;;;;;;10.90;9.80;;;16.90;99.90;;;;;;6242577;23;20462;-46
2022/08/31 05:47:25;;;;;;;10.43;9.33;;;16.90;99.90;;;;;;6243101;23;20719;-48
2022/08/31 05:49:50;;;;;;;11.67;9.60;;;16.90;99.90;;;;;;6242248;23;20131;-44
2022/08/31 05:52:16;;;;;;;10.37;9.17;;;16.90;99.90;;;;;;6243551;23;20454;-46
2022/08/31 05:54:42;;;;;;;10.10;8.93;;;16.90;99.90;;;;;;6246433;23;20479;-43
2022/08/31 05:57:09;;;;;;;10.00;8.97;;;16.90;99.90;;;;;;6246229;23;20148;-47
2022/08/31 05:59:37;;;;;;;12.60;9.63;;;16.90;99.90;;;;;;6244559;23;20361;-44
2022/08/31 06:02:03;;;;;;;10.00;9.10;;;17.00;99.90;;;;;;6243279;23;20451;-43
2022/08/31 06:04:29;;;;;;;10.27;9.20;;;17.00;99.90;;;;;;6245499;23;20687;-43
2022/08/31 06:06:54;;;;;;;11.07;10.07;;;16.90;99.90;;;;;;6247695;23;20193;-45
2022/08/31 06:09:20;;;;;;;9.70;8.80;;;16.90;99.90;;;;;;6248121;23;20442;-44
2022/08/31 06:11:46;;;;;;;10.57;9.57;;;16.80;99.90;;;;;;6246299;23;20192;-44
2022/08/31 06:14:13;;;;;;;9.67;8.73;;;16.80;99.90;;;;;;6244672;23;20213;-43
2022/08/31 06:16:41;;;;;;;9.37;8.47;;;16.80;99.90;;;;;;6245217;23;20206;-42
2022/08/31 06:19:07;;;;;;;10.70;9.77;;;16.70;99.90;;;;;;6247172;23;20491;-46
2022/08/31 06:21:36;;;;;;;9.07;7.60;;;16.70;99.90;;;;;;6246373;23;20361;-42
2022/08/31 06:24:02;;;;;;;9.67;8.67;;;16.50;99.90;;;;;;6247229;23;20432;-43
2022/08/31 06:26:30;;;;;;;9.00;8.20;;;16.50;99.90;;;;;;6249038;23;20412;-43
2022/08/31 06:28:58;;;;;;;9.13;8.23;;;16.50;99.90;;;;;;6249664;23;20465;-45
2022/08/31 06:31:30;;;;;;;9.87;8.90;;;16.40;99.90;;;;;;6247325;23;20764;-45
2022/08/31 06:33:56;;;;;;;9.23;8.43;;;16.50;99.90;;;;;;6246973;23;20384;-45
2022/08/31 06:36:24;;;;;;;10.00;9.17;;;16.50;99.90;;;;;;6247994;22;20450;-42
2022/08/31 06:38:50;;;;;;;11.20;9.10;;;16.60;99.90;;;;;;6246472;23;20385;-44
2022/08/31 06:41:20;;;;;;;9.67;8.77;;;16.70;99.90;;;;;;6246921;23;20385;-44
2022/08/31 06:43:46;;;;;;;11.67;8.43;;;16.70;99.90;;;;;;6247809;23;20388;-43
2022/08/31 06:46:12;;;;;;;9.23;8.33;;;16.70;99.90;;;;;;6246890;23;20747;-47
2022/08/31 06:48:38;;;;;;;9.40;8.60;;;16.70;99.90;;;;;;6247814;23;20385;-42
2022/08/31 06:51:06;;;;;;;9.23;8.13;;;16.70;99.90;;;;;;6246394;23;20711;-42
2022/08/31 06:53:33;;;;;;;8.80;7.90;;;16.70;99.90;;;;;;6245121;23;20474;-44
2022/08/31 06:56:06;;;;;;;9.17;8.30;;;16.70;99.90;;;;;;6243640;23;20790;-44
2022/08/31 06:58:33;;;;;;;11.03;9.23;;;16.70;99.90;;;;;;6242735;23;20377;-45
2022/08/31 07:01:05;;;;;;;12.93;10.70;;;16.70;99.90;;;;;;6246721;23;20439;-43
2022/08/31 07:03:33;;;;;;;10.63;9.53;;;16.60;99.90;;;;;;6245359;23;20342;-43
2022/08/31 07:06:04;;;;;;;10.63;9.40;;;16.60;99.90;;;;;;6245912;23;20659;-42
2022/08/31 07:08:31;;;;;;;12.93;9.57;;;16.40;99.90;;;;;;6244970;23;20959;-44
2022/08/31 07:10:56;;;;;;;10.03;9.10;;;16.50;99.90;;;;;;6244285;23;20394;-42
2022/08/31 07:13:22;;;;;;;13.83;11.20;;;16.50;99.90;;;;;;6243074;23;20767;-43
2022/08/31 07:15:47;;;;;;;11.90;10.70;;;16.60;99.90;;;;;;6246279;23;20154;-44
2022/08/31 07:18:13;;;;;;;11.77;10.50;;;16.60;99.90;;;;;;6245327;23;20206;-45
2022/08/31 07:20:39;;;;;;;18.50;11.23;;;16.70;99.90;;;;;;6246226;23;20665;-42
2022/08/31 07:23:04;;;;;;;12.63;10.43;;;16.80;99.90;;;;;;6243637;23;20132;-44
2022/08/31 07:25:30;;;;;;;12.37;10.20;;;16.80;99.90;;;;;;6245425;23;20195;-44
2022/08/31 07:27:58;;;;;;;10.67;9.67;;;16.90;99.90;;;;;;6247817;23;20178;-43
2022/08/31 07:30:24;;;;;;;12.20;11.10;;;17.00;99.90;;;;;;6247392;23;20169;-44
2022/08/31 07:32:50;;;;;;;11.10;9.97;;;17.00;99.90;;;;;;6247706;23;20360;-43
2022/08/31 07:35:17;;;;;;;11.90;10.77;;;17.10;99.90;;;;;;6246570;23;20439;-43
2022/08/31 07:43:11;;;;;;;10.90;9.77;;;17.30;99.90;;;;;;6246073;23;20407;-43
2022/08/31 07:45:37;;;;;;;9.37;8.47;;;17.40;99.90;;;;;;6246259;23;20610;-44
2022/08/31 07:48:03;;;;;;;11.10;9.90;;;17.40;99.90;;;;;;6244800;23;20429;-43
2022/08/31 07:50:30;;;;;;;10.37;9.37;;;17.40;99.90;;;;;;6244120;23;20252;-43
2022/08/31 07:52:57;;;;;;;9.63;8.70;;;17.50;99.90;;;;;;6245660;23;20126;-42
2022/08/31 07:55:24;;;;;;;9.67;8.77;;;17.50;99.90;;;;;;6247159;23;20385;-45
2022/08/31 07:57:52;;;;;;;11.40;8.80;;;17.60;99.90;;;;;;6247296;23;20358;-42
2022/08/31 08:00:27;;;;;;;10.33;9.23;;;17.60;99.90;;;;;;6246163;23;20799;-42
2022/08/31 08:02:53;;;;;;;10.90;9.80;;;17.60;99.90;;;;;;6246708;23;20381;-44
2022/08/31 08:05:23;;;;;;;11.53;10.37;;;17.60;99.90;;;;;;6248220;23;20384;-47
2022/08/31 08:07:51;;;;;;;11.50;10.33;;;17.60;99.90;;;;;;6249018;23;20675;-42
2022/08/31 08:10:20;;;;;;;11.13;9.97;;;17.60;99.90;;;;;;6246056;23;20377;-43
2022/08/31 08:12:49;;;;;;;10.97;9.83;;;17.60;99.90;;;;;;6246286;23;20792;-43
2022/08/31 08:15:16;;;;;;;10.33;9.33;;;17.60;99.90;;;;;;6245997;23;20453;-44
2022/08/31 08:17:42;;;;;;;10.77;9.80;;;17.60;99.90;;;;;;6244052;23;20396;-43
2022/08/31 08:20:08;;;;;;;10.47;9.57;;;17.70;99.90;;;;;;6243707;23;20373;-44
2022/08/31 08:22:39;;;;;;;10.73;9.73;;;17.70;99.90;;;;;;6244835;23;20538;-43
2022/08/31 08:25:05;;;;;;;10.67;9.77;;;17.70;99.90;;;;;;6240962;23;20369;-46
2022/08/31 08:27:32;;;;;;;11.30;10.30;;;17.80;99.90;;;;;;6239951;23;20540;-48
2022/08/31 08:29:58;;;;;;;12.20;10.87;;;17.90;99.90;;;;;;6241441;23;20389;-43
2022/08/31 08:32:24;;;;;;;11.67;10.60;;;17.90;99.90;;;;;;6240261;23;20921;-43
2022/08/31 08:34:50;;;;;;;11.27;10.17;;;18.00;99.90;;;;;;6241422;23;20432;-43
2022/08/31 08:37:16;;;;;;;10.80;9.90;;;18.10;99.90;;;;;;6243437;23;20396;-44
2022/08/31 08:39:42;;;;;;;10.77;9.77;;;18.20;99.90;;;;;;6246518;23;20134;-45
2022/08/31 08:42:11;;;;;;;11.10;10.10;;;18.30;99.90;;;;;;6247798;23;20153;-44
2022/08/31 08:44:38;;;;;;;12.10;11.00;;;18.40;99.90;;;;;;6220243;23;20397;-44
2022/08/31 08:47:14;;;;;;;10.87;9.90;;;18.40;99.90;;;;;;6246010;23;20774;-43
2022/08/31 08:49:45;;;;;;;11.43;10.33;;;18.50;99.90;;;;;;6223179;23;20703;-47
2022/08/31 08:52:22;;;;;;;11.30;10.30;;;18.60;99.90;;;;;;6220217;23;20557;-43
2022/08/31 08:54:49;;;;;;;12.27;11.17;;;18.70;99.90;;;;;;6245702;23;20388;-43
2022/08/31 08:57:34;;;;;;;11.50;10.40;;;18.70;99.90;;;;;;6244733;23;20389;-44
2022/08/31 09:00:10;;;;;;;12.43;11.30;;;18.70;99.90;;;;;;6243629;23;20399;-45
2022/08/31 09:02:56;;;;;;;11.40;10.30;;;18.70;99.90;;;;;;6244885;23;20416;-43
2022/08/31 09:05:44;;;;;;;12.87;11.20;;;18.70;99.90;;;;;;6244622;23;20457;-44
2022/08/31 09:08:27;;;;;;;11.67;10.47;;;18.70;99.90;;;;;;6243802;23;20457;-45
2022/08/31 09:11:05;;;;;;;12.20;11.10;;;18.50;99.90;;;;;;6244379;23;20364;-43
2022/08/31 09:13:43;;;;;;;12.07;10.90;;;18.50;99.90;;;;;;6244836;23;20377;-44
2022/08/31 09:16:19;;;;;;;16.10;14.50;;;18.50;99.90;;;;;;6244833;23;20447;-43
2022/08/31 09:18:59;;;;;;;14.00;12.57;;;18.40;99.90;;;;;;6243447;23;20385;-44
2022/08/31 09:21:28;;;;;;;13.00;11.70;;;18.30;99.90;;;;;;6241405;23;20384;-44
2022/08/31 09:24:18;;;;;;;13.50;12.20;;;18.30;99.90;;;;;;6242779;23;20491;-43
2022/08/31 09:26:56;;;;;;;15.67;14.17;;;18.40;99.90;;;;;;6243537;23;20402;-44
2022/08/31 09:29:25;;;;;;;15.90;13.60;;;18.50;99.90;;;;;;6243327;23;20386;-44
2022/08/31 09:32:09;;;;;;;15.83;14.40;;;18.60;99.90;;;;;;6243234;23;20353;-44
2022/08/31 09:34:39;;;;;;;15.10;13.60;;;18.80;99.90;;;;;;6246830;23;20424;-45
2022/08/31 09:37:23;;;;;;;17.10;14.57;;;19.10;99.90;;;;;;6243116;23;20873;-42
2022/08/31 09:39:51;;;;;;;29.63;15.57;;;19.30;99.90;;;;;;6242528;23;20598;-45
2022/08/31 09:42:31;;;;;;;30.80;16.40;;;19.40;99.90;;;;;;6243223;23;20450;-46
2022/08/31 09:45:04;;;;;;;22.93;15.53;;;19.60;99.90;;;;;;6239348;23;20387;-43
2022/08/31 09:47:59;;;;;;;18.17;13.67;;;19.70;99.90;;;;;;6243734;23;20418;-44
2022/08/31 09:50:25;;;;;;;15.73;13.33;;;19.80;99.90;;;;;;6241810;23;20359;-45
2022/08/31 09:55:35;;;;;;;16.60;12.03;;;19.80;99.90;;;;;;6243002;23;20230;-44
2022/08/31 09:58:09;;;;;;;16.87;13.33;;;19.80;99.90;;;;;;6245276;23;20360;-43
2022/08/31 10:00:40;;;;;;;15.60;13.40;;;19.90;99.90;;;;;;6244030;23;20373;-43
2022/08/31 10:03:24;;;;;;;13.27;11.97;;;19.90;99.90;;;;;;6244645;23;20814;-47
2022/08/31 10:05:53;;;;;;;14.83;13.53;;;19.90;99.90;;;;;;6241262;23;20364;-44
2022/08/31 10:08:45;;;;;;;12.47;11.47;;;19.90;99.90;;;;;;6242264;23;20388;-45
2022/08/31 10:11:14;;;;;;;14.43;13.20;;;19.90;99.90;;;;;;6243191;23;20706;-46
2022/08/31 10:13:45;;;;;;;13.87;12.63;;;19.90;99.90;;;;;;6243759;23;20444;-45
2022/08/31 10:16:29;;;;;;;13.90;12.70;;;19.90;99.90;;;;;;6243353;23;20371;-50
2022/08/31 10:19:02;;;;;;;12.60;11.50;;;19.90;99.90;;;;;;6242688;23;20779;-44
2022/08/31 10:21:50;;;;;;;12.60;11.43;;;19.80;99.90;;;;;;6242214;23;20364;-43
2022/08/31 10:24:44;;;;;;;14.07;12.77;;;19.80;99.90;;;;;;6243401;23;20365;-45
2022/08/31 10:27:51;;;;;;;13.73;12.47;;;19.70;99.90;;;;;;6242231;23;20406;-45
2022/08/31 10:30:22;;;;;;;13.50;12.17;;;19.60;99.90;;;;;;6233490;23;20394;-47
2022/08/31 10:33:03;;;;;;;13.20;12.00;;;19.50;99.90;;;;;;6244344;23;20459;-45
2022/08/31 10:35:57;;;;;;;14.40;13.00;;;19.50;99.90;;;;;;6245378;23;20424;-43
2022/08/31 10:38:35;;;;;;;12.07;10.87;;;19.40;99.90;;;;;;6242299;23;20390;-46
2022/08/31 10:41:16;;;;;;;11.83;10.67;;;19.30;99.90;;;;;;6243986;23;20360;-48
2022/08/31 10:43:52;;;;;;;13.37;12.07;;;19.40;99.90;;;;;;6242655;23;20384;-46
2022/08/31 10:46:18;;;;;;;11.57;10.47;;;19.40;99.90;;;;;;6243441;23;20861;-44
2022/08/31 10:48:53;;;;;;;12.47;10.97;;;19.50;99.90;;;;;;6247602;23;20857;-43
2022/08/31 10:51:48;;;;;;;10.70;9.70;;;19.50;99.90;;;;;;6246674;23;20364;-47
2022/08/31 10:54:34;;;;;;;12.00;11.00;;;19.60;99.90;;;;;;6212353;23;20931;-44
2022/08/31 10:57:30;;;;;;;12.83;11.70;;;19.60;99.90;;;;;;6247748;22;20671;-45
2022/08/31 10:59:56;;;;;;;13.50;12.20;;;19.70;99.90;;;;;;6245584;23;20718;-47
2022/08/31 11:02:39;;;;;;;12.93;11.70;;;19.70;99.90;;;;;;6245414;23;20371;-45
2022/08/31 11:05:25;;;;;;;16.27;14.10;;;19.80;99.90;;;;;;6244370;23;20144;-44
2022/08/31 11:07:57;;;;;;;13.23;12.00;;;19.90;99.90;;;;;;6246035;23;20424;-45
2022/08/31 11:10:25;;;;;;;14.40;12.43;;;19.90;99.90;;;;;;6244470;23;20379;-44
2022/08/31 11:12:59;;;;;;;15.50;14.10;;;20.00;99.90;;;;;;6245126;23;20370;-46
2022/08/31 11:15:37;;;;;;;16.27;14.63;;;20.20;99.90;;;;;;6247721;23;20924;-47
2022/08/31 11:18:18;;;;;;;16.90;15.50;;;20.40;99.90;;;;;;6247528;23;20358;-44
2022/08/31 11:21:06;;;;;;;15.63;14.23;;;20.50;99.90;;;;;;6246135;23;20380;-50
2022/08/31 11:24:01;;;;;;;16.70;15.40;;;20.60;99.90;;;;;;6245055;23;20426;-44
2022/08/31 11:26:44;;;;;;;14.63;13.27;;;20.70;99.90;;;;;;6214236;23;20427;-46
2022/08/31 11:29:18;;;;;;;14.50;13.30;;;20.70;99.90;;;;;;6245731;23;20408;-46
2022/08/31 11:31:44;;;;;;;12.17;11.10;;;20.90;99.90;;;;;;6245958;23;20468;-47
2022/08/31 11:34:23;;;;;;;16.07;14.57;;;20.90;99.90;;;;;;6246907;23;20479;-46
2022/08/31 11:36:51;;;;;;;17.13;15.50;;;21.00;99.60;;;;;;6246014;23;20875;-49
2022/08/31 11:39:34;;;;;;;15.40;14.20;;;20.90;99.30;;;;;;6248443;23;20534;-48
2022/08/31 11:42:26;;;;;;;14.57;13.17;;;20.70;99.90;;;;;;6247608;23;20482;-47
2022/08/31 11:45:27;;;;;;;18.13;16.40;;;20.70;99.90;;;;;;6217622;23;20387;-47
2022/08/31 11:47:53;;;;;;;16.37;14.80;;;20.70;99.90;;;;;;6244666;23;20592;-47
2022/08/31 11:50:22;;;;;;;15.17;13.97;;;20.70;99.90;;;;;;6246506;23;20354;-44
2022/08/31 11:52:52;;;;;;;14.97;13.67;;;20.80;99.90;;;;;;6247902;23;20387;-50
2022/08/31 11:55:21;;;;;;;16.63;15.13;;;20.90;99.60;;;;;;6246522;23;20360;-45
2022/08/31 11:58:10;;;;;;;13.77;12.53;;;20.90;99.20;;;;;;6246534;23;20675;-46
2022/08/31 12:00:50;;;;;;;13.77;11.53;;;21.00;99.50;;;;;;6245486;23;20363;-45
2022/08/31 12:03:44;;;;;;;12.47;11.47;;;21.30;99.60;;;;;;6246684;23;20368;-47
2022/08/31 12:06:30;;;;;;;16.57;14.80;;;21.50;99.70;;;;;;6246510;23;20379;-44
2022/08/31 12:09:31;;;;;;;15.27;13.80;;;21.70;98.20;;;;;;6245839;23;20358;-45
2022/08/31 12:12:26;;;;;;;13.37;12.10;;;21.90;97.50;;;;;;6245139;23;20435;-46
2022/08/31 12:15:01;;;;;;;14.57;13.17;;;21.90;96.90;;;;;;6246767;23;20352;-45
2022/08/31 12:17:37;;;;;;;14.47;13.17;;;22.00;97.00;;;;;;6248022;23;20399;-48
2022/08/31 12:20:17;;;;;;;13.70;12.40;;;21.90;96.40;;;;;;6245197;23;20740;-45
2022/08/31 12:26:06;;;;;;;13.80;12.60;;;21.80;96.70;;;;;;6244183;23;20416;-45
2022/08/31 12:28:52;;;;;;;14.20;13.00;;;21.90;96.90;;;;;;6243949;23;20389;-47
2022/08/31 12:31:18;;;;;;;12.43;11.13;;;22.10;96.70;;;;;;6243442;23;20348;-45
2022/08/31 12:33:58;;;;;;;12.20;11.10;;;22.20;96.20;;;;;;6244892;23;20840;-45
2022/08/31 12:36:28;;;;;;;16.27;12.93;;;22.20;95.80;;;;;;6244154;23;20195;-45
2022/08/31 12:39:26;;;;;;;13.07;11.90;;;22.30;95.60;;;;;;6246691;23;20539;-46
2022/08/31 12:41:58;;;;;;;13.77;12.40;;;22.40;96.00;;;;;;6240235;22;20430;-45
2022/08/31 12:44:34;;;;;;;13.70;12.60;;;22.50;95.80;;;;;;6245015;23;20676;-47
2022/08/31 12:47:05;;;;;;;12.17;11.07;;;22.70;95.60;;;;;;6246878;23;20936;-44
2022/08/31 12:50:03;;;;;;;11.13;10.13;;;22.90;95.70;;;;;;6247355;23;20417;-44
2022/08/31 12:52:50;;;;;;;11.83;10.73;;;23.10;95.80;;;;;;6241651;23;20395;-44
2022/08/31 12:55:31;;;;;;;13.03;11.83;;;23.40;94.90;;;;;;6246001;23;20356;-45
2022/08/31 12:58:17;;;;;;;11.37;9.77;;;23.70;94.20;;;;;;6243670;23;20365;-46
2022/08/31 13:00:43;;;;;;;13.00;11.80;;;24.00;93.30;;;;;;6244940;23;20386;-44
2022/08/31 13:03:21;;;;;;;13.07;11.80;;;24.20;93.10;;;;;;6241533;23;20426;-45
2022/08/31 13:06:06;;;;;;;14.43;13.00;;;24.20;91.80;;;;;;6243104;23;20377;-45